Auburndale, Massachusetts
Current Conditions -  °F | °C
As of 8:54 PM on Monday 20 Oct 2014 (Local Time) from KBOS Reporting Station
Broken Clouds Broken Clouds  
Wind Chill: 51°   Ceiling: 20000
Heat Index: 51°   Visibility: 10mi
Dew Point: 37°   Wind: 8mph
Humidity: 59%   Direction: 210°SSW
Pressure: 30.01"   Gusts: NA
Location:  42.35°N, 70.95°W
Report Text: KBOS 210054Z 21007KT 10SM FEW140 BKN200 11/03 A3001 RMK AO2 SLP161 T01060028
Loading
Personal Weather Stations






























Interactive Weather Map New forecast layout! Learn more

10-Day Weather Forecast

Advertisements
Track Severe Weather on mobile